Terminal Aerodrome Forecast
Issued by NWS Chicago, IL

Home | Current Version | Previous Version | Text Only | Print | Product List | Glossary On
Versions: 1 2 3 4 5 6 7 8 9 10 11 12 13 14 15 16 17 18 19 20 21 22 23 24 25
653
FTUS43 KLOT 281151 AAA
TAFRFD
TAF AMD
KRFD 281151Z 2812/2912 VRB03KT P6SM -SHRA VCTS BKN035CB
      TEMPO 2812/2813 2SM TSRA BKN011 BKN020CB
     FM281300 32004KT 6SM -SHRA SCT015 BKN025
     FM281600 29012KT P6SM SCT040 BKN100
     FM282100 28012G18KT P6SM VCSH BKN050
     FM282300 27008KT P6SM SCT150=

USA.gov is the U.S. government's official web portal to all federal, state and local government web resources and services.